Time;durP1;ratioP1;P1;durP2;ratioP2;P2;SDS_P1;SDS_P2;PMS_P1;PMS_P2;Temp;Humidity;BMP_temperature;BMP_pressure;BME280_temperature;BME280_humidity;BME280_pressure;Samples;Min_cycle;Max_cycle;Signal;HPM_P1;HPM_P2
2022/01/15 00:01:50;;;;;;;1.98;1.27;;;;;;;2.23;54.28;100988.98;1780424;80;25811;-62
2022/01/15 00:04:17;;;;;;;1.75;0.75;;;;;;;2.19;54.45;100997.56;1780589;80;25746;-62
2022/01/15 00:06:43;;;;;;;6.03;1.25;;;;;;;2.16;54.64;101011.42;1783514;79;29625;-62
2022/01/15 00:09:10;;;;;;;2.92;0.78;;;;;;;2.08;54.79;101018.91;1785375;80;25502;-62
2022/01/15 00:11:37;;;;;;;3.25;1.02;;;;;;;2.06;54.99;101016.34;1785497;80;26252;-62
2022/01/15 00:14:22;;;;;;;2.40;1.02;;;;;;;2.05;55.19;101014.62;1785538;80;25782;-62
2022/01/15 00:16:55;;;;;;;3.17;0.60;;;;;;;2.01;55.32;101019.22;1782751;80;25833;-62
2022/01/15 00:19:31;;;;;;;3.22;0.82;;;;;;;1.99;55.48;101020.23;1784496;80;27090;-62
2022/01/15 00:21:49;;;;;;;2.50;0.80;;;;;;;1.98;55.68;101033.95;1783816;80;25696;-62
2022/01/15 00:24:15;;;;;;;4.78;1.00;;;;;;;1.94;55.87;101056.28;1795148;79;25796;-62
2022/01/15 00:26:42;;;;;;;2.72;1.10;;;;;;;1.91;56.06;101036.52;1785305;79;25789;-63
2022/01/15 00:29:12;;;;;;;4.97;0.90;;;;;;;1.87;56.14;101053.05;1783454;80;25897;-62
2022/01/15 00:31:39;;;;;;;7.83;1.10;;;;;;;1.85;56.20;101048.28;1780537;80;27595;-62
2022/01/15 00:34:06;;;;;;;3.27;1.27;;;;;;;1.86;56.18;101055.31;1773107;79;25727;-62
2022/01/15 00:36:35;;;;;;;4.55;1.40;;;;;;;1.85;56.32;101066.00;1733812;82;25809;-62
2022/01/15 00:39:03;;;;;;;2.30;0.88;;;;;;;1.82;56.44;101063.04;1735078;82;25867;-62
2022/01/15 00:41:31;;;;;;;1.37;0.68;;;;;;;1.76;56.64;101054.50;1738546;81;25813;-61
2022/01/15 00:43:58;;;;;;;5.35;1.12;;;;;;;1.75;56.70;101074.00;1778155;80;27509;-61
2022/01/15 00:46:25;;;;;;;5.60;1.00;;;;;;;1.73;56.77;101072.75;1734802;82;25797;-62
2022/01/15 00:48:52;;;;;;;10.15;1.00;;;;;;;1.73;56.82;101068.78;1735905;80;25757;-61
2022/01/15 00:51:19;;;;;;;5.25;1.02;;;;;;;1.71;56.98;101083.89;1731936;81;26564;-61
2022/01/15 00:53:46;;;;;;;2.62;0.78;;;;;;;1.66;57.31;101080.61;1730905;80;25504;-61
2022/01/15 00:56:14;;;;;;;4.92;1.10;;;;;;;1.63;57.34;101073.63;1730268;80;28217;-61
2022/01/15 00:58:41;;;;;;;4.83;1.75;;;;;;;1.60;57.70;101074.23;1763016;80;25729;-61
2022/01/15 01:01:08;;;;;;;6.80;1.22;;;;;;;1.55;57.90;101074.45;1790102;80;25458;-61
2022/01/15 01:03:37;;;;;;;7.87;1.57;;;;;;;1.52;58.14;101077.27;1790131;80;25886;-61
2022/01/15 01:06:04;;;;;;;3.55;1.52;;;;;;;1.51;58.09;101079.52;1738502;79;25528;-61
2022/01/15 01:08:30;;;;;;;3.67;1.30;;;;;;;1.49;58.57;101088.84;1735414;82;28299;-61
2022/01/15 01:11:03;;;;;;;2.62;0.80;;;;;;;1.46;58.73;101106.69;1735123;82;25801;-61
2022/01/15 01:24:36;;;;;;;3.98;1.00;;;;;;;1.35;59.82;101128.39;1735932;80;25798;-62
2022/01/15 01:27:19;;;;;;;7.58;1.50;;;;;;;1.33;60.12;101135.54;1756335;80;25755;-63
2022/01/15 01:30:31;;;;;;;3.75;1.20;;;;;;;1.33;60.07;101140.39;1784637;79;25834;-61
2022/01/15 01:32:42;;;;;;;2.33;0.90;;;;;;;1.33;60.17;101142.16;1761120;81;25874;-62
2022/01/15 01:34:44;;;;;;;7.33;1.60;;;;;;;1.32;60.30;101141.31;1763560;79;27583;-63
2022/01/15 01:37:18;;;;;;;6.53;1.22;;;;;;;1.31;60.56;101140.91;1721548;82;25748;-63
2022/01/15 01:39:53;;;;;;;6.10;1.32;;;;;;;1.37;60.50;101151.23;1749982;82;25432;-62
2022/01/15 01:45:10;;;;;;;4.42;1.70;;;;;;;1.47;60.58;101146.41;1746808;79;25730;-62
2022/01/15 01:47:40;;;;;;;5.03;1.40;;;;;;;1.51;60.45;101151.11;1747279;81;28623;-62
2022/01/15 01:50:26;;;;;;;3.25;1.75;;;;;;;1.56;60.45;101151.30;1742113;81;25700;-62
2022/01/15 01:52:57;;;;;;;8.15;2.17;;;;;;;1.63;60.41;101160.30;1739588;82;26357;-62
2022/01/15 01:55:27;;;;;;;12.05;1.50;;;;;;;1.63;60.38;101141.25;1769230;79;25790;-62
2022/01/15 01:57:57;;;;;;;4.37;1.45;;;;;;;1.66;60.40;101155.72;1772441;80;25684;-63
2022/01/15 02:00:27;;;;;;;4.60;2.00;;;;;;;1.68;60.27;101148.55;1768951;80;26940;-62
2022/01/15 02:02:59;;;;;;;4.83;1.55;;;;;;;1.69;60.25;101152.05;1769151;81;25920;-61
2022/01/15 02:05:27;;;;;;;2.42;1.32;;;;;;;1.71;60.18;101155.50;1763131;79;25667;-62
2022/01/15 02:07:53;;;;;;;3.25;1.27;;;;;;;1.74;60.17;101152.73;1764425;79;26970;-63
2022/01/15 02:10:22;;;;;;;6.15;2.12;;;;;;;1.76;60.12;101147.34;1773910;79;25784;-62
2022/01/15 02:12:51;;;;;;;4.50;1.85;;;;;;;1.76;60.05;101149.52;1750344;82;27472;-62
2022/01/15 02:15:22;;;;;;;4.70;1.77;;;;;;;1.82;60.03;101142.63;1784223;79;25690;-62
2022/01/15 02:17:50;;;;;;;4.28;1.50;;;;;;;1.83;60.02;101158.94;1752740;79;25479;-62
2022/01/15 02:20:35;;;;;;;5.12;1.55;;;;;;;1.81;60.13;101169.20;1750539;80;25812;-62
2022/01/15 02:26:16;;;;;;;5.67;1.72;;;;;;;1.85;60.00;101168.99;1753906;79;28314;-62
2022/01/15 02:28:59;;;;;;;5.22;1.32;;;;;;;1.86;59.85;101171.20;1750572;80;25826;-62
2022/01/15 02:31:30;;;;;;;3.92;1.32;;;;;;;1.84;59.85;101171.25;1750580;81;25748;-62
2022/01/15 02:34:03;;;;;;;35.50;9.85;;;;;;;1.83;59.71;101172.20;1751036;79;26447;-63
2022/01/15 02:36:34;;;;;;;3.52;1.55;;;;;;;1.83;59.62;101161.59;1799839;79;25758;-63
2022/01/15 02:39:03;;;;;;;4.00;1.37;;;;;;;1.77;59.72;101159.20;1790800;79;28245;-62
2022/01/15 02:41:39;;;;;;;9.48;1.75;;;;;;;1.74;59.68;101158.03;1791881;79;25685;-63
2022/01/15 02:44:14;;;;;;;8.80;1.62;;;;;;;1.69;59.69;101161.34;1801331;79;25713;-63
2022/01/15 02:49:18;;;;;;;10.20;1.42;;;;;;;1.59;59.74;101170.19;1785782;80;25834;-62
2022/01/15 02:51:47;;;;;;;7.97;1.77;;;;;;;1.57;59.74;101168.06;1784428;80;27453;-62
2022/01/15 02:54:18;;;;;;;7.00;1.85;;;;;;;1.55;59.73;101165.94;1780930;79;25679;-62
2022/01/15 02:56:48;;;;;;;3.95;2.05;;;;;;;1.51;59.78;101165.22;1785929;79;25640;-62
2022/01/15 02:59:20;;;;;;;6.05;1.52;;;;;;;1.49;59.69;101167.55;1784485;80;25701;-62
2022/01/15 03:01:49;;;;;;;2.92;1.67;;;;;;;1.41;59.77;101169.20;1786014;80;26402;-62
2022/01/15 03:04:18;;;;;;;5.08;1.70;;;;;;;1.39;59.90;101169.75;1785003;80;27461;-62
2022/01/15 03:06:45;;;;;;;3.95;1.75;;;;;;;1.38;59.77;101182.13;1784382;80;25794;-62
2022/01/15 03:09:12;;;;;;;3.83;1.37;;;;;;;1.37;59.87;101199.44;1785669;80;25714;-62
2022/01/15 03:11:40;;;;;;;7.72;2.10;;;;;;;1.38;59.55;101186.11;1785620;80;26064;-62
2022/01/15 03:14:09;;;;;;;5.03;1.80;;;;;;;1.38;59.37;101182.61;1783751;80;25820;-62
2022/01/15 03:16:36;;;;;;;5.90;1.65;;;;;;;1.37;59.38;101180.88;1785793;79;27446;-62
2022/01/15 03:19:06;;;;;;;15.10;2.52;;;;;;;1.35;59.33;101194.18;1784155;80;25892;-62
2022/01/15 03:21:33;;;;;;;12.35;2.00;;;;;;;1.37;59.21;101193.66;1780502;79;25695;-62
2022/01/15 03:24:00;;;;;;;4.75;1.50;;;;;;;1.38;59.23;101190.56;1797039;79;25790;-62
2022/01/15 03:26:27;;;;;;;4.60;1.50;;;;;;;1.42;58.97;101182.85;1785728;79;25925;-62
2022/01/15 03:28:57;;;;;;;6.97;1.45;;;;;;;1.41;58.95;101187.75;1785639;79;27468;-62
2022/01/15 03:31:24;;;;;;;6.40;2.47;;;;;;;1.39;58.95;101194.45;1785597;80;25709;-63
2022/01/15 03:33:58;;;;;;;7.75;1.45;;;;;;;1.39;58.89;101201.56;1781707;79;25683;-62
2022/01/15 03:36:25;;;;;;;5.30;2.08;;;;;;;1.38;58.87;101201.16;1771063;79;25786;-62
2022/01/15 03:38:53;;;;;;;7.30;2.10;;;;;;;1.39;58.77;101199.76;1771686;80;25759;-62
2022/01/15 03:41:20;;;;;;;7.08;1.37;;;;;;;1.43;58.66;101197.83;1742604;81;27508;-63
2022/01/15 03:43:47;;;;;;;6.53;1.42;;;;;;;1.46;58.44;101208.77;1774185;79;25740;-62
2022/01/15 03:46:14;;;;;;;9.20;1.35;;;;;;;1.46;58.48;101206.99;1769035;80;25708;-62
2022/01/15 03:48:41;;;;;;;3.20;1.72;;;;;;;1.47;58.39;101210.49;1765872;80;26566;-62
2022/01/15 03:51:08;;;;;;;5.05;1.72;;;;;;;1.53;58.06;101203.58;1775316;80;25730;-62
2022/01/15 03:53:34;;;;;;;7.35;2.33;;;;;;;1.61;57.91;101212.54;1780207;80;27454;-62
2022/01/15 03:56:03;;;;;;;3.85;1.72;;;;;;;1.63;57.86;101203.58;1780184;80;25718;-62
2022/01/15 03:58:30;;;;;;;6.45;2.25;;;;;;;1.67;57.50;101196.34;1778051;80;25786;-62
2022/01/15 04:00:59;;;;;;;9.35;1.95;;;;;;;1.71;57.52;101220.49;1772079;79;25867;-62
2022/01/15 04:03:27;;;;;;;6.28;1.82;;;;;;;1.75;57.22;101207.47;1776037;80;25731;-62
2022/01/15 04:05:54;;;;;;;14.20;5.60;;;;;;;1.80;57.24;101207.27;1774219;80;27692;-62
2022/01/15 04:08:24;;;;;;;8.73;2.65;;;;;;;1.82;57.23;101212.92;1774678;80;25833;-61
2022/01/15 04:10:51;;;;;;;5.85;1.70;;;;;;;1.84;57.29;101212.37;1774415;80;25786;-62
2022/01/15 04:13:19;;;;;;;9.35;1.92;;;;;;;1.85;57.08;101199.98;1772489;80;27902;-62
2022/01/15 04:15:52;;;;;;;8.98;2.30;;;;;;;1.87;56.94;101244.56;1776507;80;25792;-62
2022/01/15 04:18:16;;;;;;;11.12;2.02;;;;;;;1.90;56.95;101220.52;1735314;82;28372;-62
2022/01/15 04:20:43;;;;;;;9.95;2.33;;;;;;;1.90;56.95;101226.30;1770714;81;25869;-62
2022/01/15 04:23:12;;;;;;;6.67;2.27;;;;;;;1.91;56.82;101220.07;1736890;81;25803;-62
2022/01/15 04:25:39;;;;;;;8.65;2.27;;;;;;;1.94;56.82;101221.23;1739288;82;26445;-62
2022/01/15 04:28:11;;;;;;;5.37;2.02;;;;;;;1.92;56.75;101241.70;1718823;83;25987;-61
2022/01/15 04:30:41;;;;;;;7.62;2.30;;;;;;;1.94;56.79;101246.00;1773659;80;27463;-62
2022/01/15 04:33:08;;;;;;;4.22;1.92;;;;;;;1.94;56.71;101242.47;1770795;79;25802;-62
2022/01/15 04:35:35;;;;;;;11.45;2.30;;;;;;;1.93;56.68;101228.35;1776827;80;25783;-62
2022/01/15 04:38:09;;;;;;;6.30;2.95;;;;;;;1.89;56.56;101236.04;1785631;79;26499;-62
2022/01/15 04:40:34;;;;;;;5.72;2.08;;;;;;;1.90;56.65;101239.57;1785256;79;26119;-59
2022/01/15 04:43:03;;;;;;;6.72;2.40;;;;;;;1.91;56.75;101224.05;1783261;80;28265;-62
2022/01/15 04:45:29;;;;;;;7.83;2.20;;;;;;;1.92;56.79;101245.20;1784346;80;25797;-61
2022/01/15 04:47:56;;;;;;;5.65;2.30;;;;;;;1.94;56.70;101230.52;1786004;80;26091;-62
2022/01/15 04:50:23;;;;;;;10.00;3.98;;;;;;;1.93;56.73;101234.14;1762318;80;25789;-62
2022/01/15 04:52:50;;;;;;;8.78;2.58;;;;;;;1.95;56.69;101230.48;1783115;80;25518;-62
2022/01/15 04:55:20;;;;;;;7.78;2.05;;;;;;;1.97;56.60;101238.36;1767771;80;27474;-62
2022/01/15 04:57:46;;;;;;;10.03;2.75;;;;;;;1.97;56.50;101230.40;1749682;82;25693;-62
2022/01/15 05:00:17;;;;;;;5.78;2.20;;;;;;;1.98;56.35;101241.41;1749820;82;25816;-62
2022/01/15 05:02:44;;;;;;;8.93;2.62;;;;;;;1.97;56.35;101241.02;1763563;80;25811;-62
2022/01/15 05:05:13;;;;;;;6.37;2.35;;;;;;;1.96;56.25;101233.53;1783185;80;25731;-63
2022/01/15 05:07:42;;;;;;;8.43;2.30;;;;;;;1.99;56.22;101240.48;1785489;79;27455;-62
2022/01/15 05:10:17;;;;;;;6.50;2.40;;;;;;;1.99;56.06;101242.66;1784067;80;26338;-62
2022/01/15 05:12:44;;;;;;;10.50;2.40;;;;;;;2.02;56.00;101239.00;1794003;79;25797;-62
2022/01/15 05:15:14;;;;;;;6.17;2.30;;;;;;;1.98;55.65;101236.11;1790989;79;26672;-62
2022/01/15 05:17:42;;;;;;;7.80;2.30;;;;;;;2.00;55.90;101244.86;1806609;79;25855;-62
2022/01/15 05:20:17;;;;;;;5.87;2.45;;;;;;;2.00;55.94;101248.84;1780473;80;27430;-62
2022/01/15 05:22:44;;;;;;;8.90;2.20;;;;;;;2.00;55.66;101246.19;1782011;79;25763;-62
2022/01/15 05:25:17;;;;;;;11.88;3.55;;;;;;;2.00;55.72;101243.54;1800312;79;25821;-62
2022/01/15 05:27:51;;;;;;;9.13;3.22;;;;;;;1.99;55.59;101253.75;1794341;79;25838;-62
2022/01/15 05:30:17;;;;;;;14.35;3.92;;;;;;;2.01;55.64;101254.07;1803038;78;25495;-61
2022/01/15 05:32:47;;;;;;;20.05;4.95;;;;;;;1.99;55.37;101257.25;1790487;78;27463;-62
2022/01/15 05:35:13;;;;;;;17.12;4.70;;;;;;;1.99;55.50;101250.63;1787024;79;25712;-61
2022/01/15 05:37:40;;;;;;;15.38;4.53;;;;;;;2.01;55.34;101277.11;1801874;79;25478;-62
2022/01/15 05:40:09;;;;;;;16.10;5.22;;;;;;;2.00;55.35;101263.44;1793644;78;26499;-62
2022/01/15 05:42:36;;;;;;;8.58;2.60;;;;;;;2.01;55.40;101275.78;1803136;79;25858;-61
2022/01/15 05:45:04;;;;;;;14.43;3.35;;;;;;;2.01;55.32;101276.63;1798764;79;27468;-61
2022/01/15 05:47:31;;;;;;;10.68;3.27;;;;;;;2.03;55.44;101272.13;1793892;80;25723;-61
2022/01/15 05:49:59;;;;;;;12.20;3.85;;;;;;;2.05;55.34;101277.35;1794073;79;25693;-61
2022/01/15 05:52:27;;;;;;;8.23;3.50;;;;;;;2.07;55.48;101287.44;1794789;79;25851;-61
2022/01/15 05:54:53;;;;;;;11.20;3.75;;;;;;;2.08;55.50;101286.96;1796004;79;25728;-61
2022/01/15 05:57:20;;;;;;;11.90;4.33;;;;;;;2.08;55.44;101289.17;1793893;80;27463;-62
2022/01/15 05:59:47;;;;;;;8.83;2.72;;;;;;;2.09;55.47;101297.53;1794231;80;25766;-60
2022/01/15 06:02:15;;;;;;;9.78;3.83;;;;;;;2.06;55.42;101289.70;1786659;79;25771;-62
2022/01/15 06:04:42;;;;;;;13.72;3.02;;;;;;;2.07;55.45;101291.88;1785386;78;26283;-62
2022/01/15 06:07:13;;;;;;;10.05;2.55;;;;;;;2.11;55.44;101293.47;1786075;79;25756;-62
2022/01/15 06:09:40;;;;;;;5.72;2.58;;;;;;;2.10;55.23;101291.30;1786426;79;28152;-62
2022/01/15 06:12:09;;;;;;;7.05;2.85;;;;;;;2.08;55.18;101299.78;1796802;79;25779;-62
2022/01/15 06:14:36;;;;;;;8.38;2.20;;;;;;;2.13;55.14;101318.16;1799339;79;25687;-62
2022/01/15 06:17:04;;;;;;;10.00;2.87;;;;;;;2.10;54.88;101316.52;1798761;79;25772;-61
2022/01/15 06:19:31;;;;;;;10.75;3.42;;;;;;;2.12;55.11;101327.90;1789296;79;25746;-62
2022/01/15 06:21:58;;;;;;;13.98;3.30;;;;;;;2.15;55.07;101326.92;1795927;79;27465;-61
2022/01/15 06:24:27;;;;;;;6.53;2.45;;;;;;;2.13;55.05;101320.81;1805632;79;25687;-61
2022/01/15 06:26:53;;;;;;;10.98;2.58;;;;;;;2.12;55.05;101317.76;1810086;77;26022;-61
2022/01/15 06:29:21;;;;;;;6.30;2.62;;;;;;;2.16;55.19;101324.19;1810854;79;26204;-61
2022/01/15 06:31:48;;;;;;;7.10;2.80;;;;;;;2.19;54.98;101325.84;1800649;79;25730;-62
2022/01/15 06:34:15;;;;;;;16.42;2.92;;;;;;;2.22;55.00;101336.78;1785917;80;27466;-61
2022/01/15 06:36:44;;;;;;;10.88;3.10;;;;;;;2.21;55.01;101328.42;1785621;79;25810;-61
2022/01/15 06:39:14;;;;;;;13.72;3.20;;;;;;;2.23;55.10;101345.14;1786056;80;25815;-63
2022/01/15 06:41:41;;;;;;;7.75;3.05;;;;;;;2.21;54.89;101341.69;1800551;78;25714;-62
2022/01/15 06:44:08;;;;;;;13.32;2.15;;;;;;;2.24;54.95;101336.25;1813514;79;25691;-61
2022/01/15 06:46:39;;;;;;;11.63;3.35;;;;;;;2.21;54.87;101347.00;1801107;79;27526;-62
2022/01/15 06:49:06;;;;;;;7.90;2.75;;;;;;;2.23;54.86;101353.11;1793772;79;25962;-61
2022/01/15 06:51:33;;;;;;;10.45;2.87;;;;;;;2.24;54.87;101356.16;1801269;79;25821;-62
2022/01/15 06:54:02;;;;;;;12.43;2.80;;;;;;;2.24;54.89;101346.39;1807927;79;26481;-62
2022/01/15 06:56:29;;;;;;;14.35;2.95;;;;;;;2.26;54.94;101350.33;1742370;82;26402;-62
2022/01/15 06:58:55;;;;;;;5.92;2.72;;;;;;;2.29;54.99;101354.16;1742388;82;28182;-63
2022/01/15 07:01:28;;;;;;;11.78;4.10;;;;;;;2.32;54.92;101350.05;1739395;82;25626;-63
2022/01/15 07:03:55;;;;;;;10.32;2.47;;;;;;;2.35;54.81;101359.22;1741778;82;25803;-62
2022/01/15 07:06:22;;;;;;;11.73;4.30;;;;;;;2.32;54.60;101365.98;1751539;80;25769;-63
2022/01/15 07:08:49;;;;;;;10.25;3.08;;;;;;;2.35;54.77;101363.20;1751037;80;25672;-61
2022/01/15 07:11:15;;;;;;;6.70;2.75;;;;;;;2.37;54.71;101372.41;1753267;81;28204;-62
2022/01/15 07:19:52;;;;;;;12.70;3.35;;;;;;;2.40;54.41;101371.80;1758685;80;25836;-62
2022/01/15 07:22:18;;;;;;;11.75;3.25;;;;;;;2.41;54.42;101370.03;1757132;79;25933;-62
2022/01/15 07:24:45;;;;;;;9.68;3.27;;;;;;;2.47;54.48;101377.23;1774543;79;27506;-62
2022/01/15 07:27:12;;;;;;;12.85;2.77;;;;;;;2.41;54.37;101389.47;1819481;78;25701;-62
2022/01/15 07:29:41;;;;;;;11.57;3.15;;;;;;;2.42;54.48;101384.55;1819227;77;25728;-62
2022/01/15 07:32:08;;;;;;;22.52;4.00;;;;;;;2.45;54.56;101387.09;1799922;78;26139;-62
2022/01/15 07:34:35;;;;;;;14.13;2.92;;;;;;;2.47;54.61;101395.83;1794318;80;25755;-62
2022/01/15 07:37:05;;;;;;;11.80;3.08;;;;;;;2.50;54.56;101383.75;1782815;80;29547;-62
2022/01/15 07:39:35;;;;;;;15.68;5.92;;;;;;;2.52;54.23;101387.65;1778555;79;25654;-62
2022/01/15 07:42:03;;;;;;;13.15;4.00;;;;;;;2.54;54.51;101392.91;1774907;79;26458;-62
2022/01/15 07:44:30;;;;;;;17.92;3.40;;;;;;;2.60;54.52;101388.64;1741175;82;25691;-62
2022/01/15 07:46:57;;;;;;;6.17;2.65;;;;;;;2.59;54.36;101386.47;1711257;83;25986;-61
2022/01/15 07:49:24;;;;;;;15.40;3.75;;;;;;;2.57;54.00;101395.41;1711090;83;27490;-63
2022/01/15 07:51:52;;;;;;;12.70;3.70;;;;;;;2.60;54.11;101396.13;1716097;83;25849;-62
2022/01/15 07:54:19;;;;;;;10.55;3.15;;;;;;;2.61;53.75;101403.17;1759277;81;25747;-62
2022/01/15 07:56:46;;;;;;;12.25;3.83;;;;;;;2.65;54.09;101408.76;1759371;80;26592;-62
2022/01/15 07:59:13;;;;;;;17.57;4.62;;;;;;;2.64;53.76;101403.52;1759487;81;26375;-62
2022/01/15 08:01:40;;;;;;;14.87;3.50;;;;;;;2.67;53.83;101407.35;1752976;81;28157;-62
2022/01/15 08:04:07;;;;;;;13.15;3.58;;;;;;;2.69;53.56;101408.63;1746360;80;25734;-62
2022/01/15 08:06:35;;;;;;;13.38;3.22;;;;;;;2.73;53.81;101423.03;1746578;82;25570;-62
2022/01/15 08:09:02;;;;;;;15.30;2.90;;;;;;;2.73;53.58;101420.83;1746298;81;25811;-62
2022/01/15 08:11:29;;;;;;;10.98;3.10;;;;;;;2.71;53.49;101434.64;1751895;81;26402;-62
2022/01/15 08:13:56;;;;;;;11.08;2.55;;;;;;;2.69;53.40;101422.77;1747258;81;28796;-62
2022/01/15 08:16:24;;;;;;;16.07;3.35;;;;;;;2.74;53.74;101419.42;1746313;81;25625;-62
2022/01/15 08:18:52;;;;;;;14.10;3.47;;;;;;;2.75;53.50;101421.62;1696584;82;25703;-62
2022/01/15 08:21:22;;;;;;;13.43;3.37;;;;;;;2.75;53.65;101423.80;1773899;80;25765;-62
2022/01/15 08:23:55;;;;;;;15.10;2.80;;;;;;;2.80;53.44;101432.89;1790073;79;25712;-62
2022/01/15 08:26:22;;;;;;;13.30;4.15;;;;;;;2.78;53.42;101427.66;1813689;78;27343;-62
2022/01/15 08:28:49;;;;;;;10.43;3.55;;;;;;;2.79;53.64;101425.85;1813312;79;25757;-62
2022/01/15 08:31:21;;;;;;;7.62;2.70;;;;;;;2.77;53.39;101440.55;1800780;79;25680;-62
2022/01/15 08:33:48;;;;;;;10.43;2.47;;;;;;;2.81;53.50;101424.00;1777429;79;26185;-62
2022/01/15 08:36:17;;;;;;;16.90;2.83;;;;;;;2.81;53.44;101432.84;1772897;79;25243;-62
2022/01/15 08:38:47;;;;;;;14.33;3.47;;;;;;;2.78;53.47;101434.30;1740431;82;27530;-62
2022/01/15 08:41:19;;;;;;;11.00;3.02;;;;;;;2.81;53.65;101433.30;1742987;81;25808;-63
2022/01/15 08:43:46;;;;;;;11.90;4.08;;;;;;;2.83;53.62;101434.09;1741535;81;25581;-61
2022/01/15 08:46:17;;;;;;;6.78;2.20;;;;;;;2.81;53.52;101433.30;1739298;81;25811;-61
2022/01/15 08:48:43;;;;;;;13.35;2.90;;;;;;;2.76;53.32;101424.20;1756336;81;25807;-61
2022/01/15 08:51:14;;;;;;;11.38;3.00;;;;;;;2.74;53.52;101428.72;1752866;81;27489;-61
2022/01/15 08:53:41;;;;;;;8.68;2.83;;;;;;;2.73;53.61;101433.66;1738509;81;25955;-61
2022/01/15 08:56:08;;;;;;;16.12;3.33;;;;;;;2.75;53.55;101430.92;1746520;81;25802;-61
2022/01/15 08:58:38;;;;;;;14.00;3.22;;;;;;;2.75;53.52;101444.21;1746186;81;26493;-62
2022/01/15 09:01:05;;;;;;;9.00;3.10;;;;;;;2.75;53.66;101429.60;1757380;81;25792;-62
2022/01/15 09:03:41;;;;;;;12.45;3.25;;;;;;;2.82;53.65;101430.56;1741005;82;27498;-62
2022/01/15 09:06:12;;;;;;;10.48;2.83;;;;;;;2.84;53.57;101437.60;1740102;82;25699;-61
2022/01/15 09:08:42;;;;;;;12.00;3.98;;;;;;;2.87;53.46;101432.16;1759733;81;25819;-62
2022/01/15 09:11:09;;;;;;;13.55;3.17;;;;;;;2.85;53.36;101445.53;1759873;81;25833;-62
2022/01/15 09:13:36;;;;;;;9.08;3.58;;;;;;;2.90;53.45;101436.86;1737359;81;25867;-62
2022/01/15 09:16:03;;;;;;;10.15;3.30;;;;;;;2.94;53.21;101433.59;1741555;81;27483;-62
2022/01/15 09:18:30;;;;;;;11.28;3.10;;;;;;;2.93;53.00;101433.20;1742383;81;25787;-62
2022/01/15 09:20:57;;;;;;;9.78;3.20;;;;;;;2.97;53.01;101434.80;1735209;81;26072;-62
2022/01/15 09:23:27;;;;;;;11.73;3.42;;;;;;;2.96;53.06;101448.53;1737769;81;26680;-61
2022/01/15 09:25:59;;;;;;;13.30;3.62;;;;;;;2.96;52.87;101429.08;1739739;82;25732;-62
2022/01/15 09:31:12;;;;;;;12.75;3.17;;;;;;;3.06;52.93;101451.65;1746675;81;25925;-61
2022/01/15 09:33:41;;;;;;;10.93;3.22;;;;;;;3.11;52.58;101452.77;1737339;81;25780;-62
2022/01/15 09:38:58;;;;;;;27.67;5.53;;;;;;;3.08;52.87;101455.11;1758367;80;25776;-62
2022/01/15 09:41:27;;;;;;;14.30;3.83;;;;;;;3.08;52.98;101449.79;1794423;79;28702;-62
2022/01/15 09:43:56;;;;;;;17.92;3.90;;;;;;;3.07;52.96;101455.16;1775286;80;25698;-62
2022/01/15 09:46:24;;;;;;;11.55;3.15;;;;;;;3.00;52.80;101450.61;1750754;80;25817;-62
2022/01/15 09:48:51;;;;;;;13.05;3.77;;;;;;;3.05;53.10;101445.93;1753996;80;25954;-62
2022/01/15 09:51:22;;;;;;;22.42;4.37;;;;;;;3.03;52.77;101450.93;1754632;81;25785;-62
2022/01/15 09:53:50;;;;;;;23.40;3.85;;;;;;;3.04;52.95;101456.65;1706007;84;27459;-62
2022/01/15 09:56:17;;;;;;;22.90;4.40;;;;;;;3.01;53.05;101462.09;1724406;82;25851;-62
2022/01/15 09:58:43;;;;;;;9.38;3.65;;;;;;;3.01;53.03;101455.45;1746979;82;25782;-62
2022/01/15 10:01:10;;;;;;;8.10;3.60;;;;;;;3.06;53.15;101455.64;1735704;81;25765;-62
2022/01/15 10:03:39;;;;;;;14.87;3.77;;;;;;;3.05;52.75;101458.38;1732460;81;25719;-62
2022/01/15 10:06:06;;;;;;;14.15;3.45;;;;;;;3.05;52.51;101459.22;1721573;82;28234;-62
2022/01/15 10:08:33;;;;;;;6.65;2.15;;;;;;;3.04;52.39;101452.66;1729504;82;25827;-62
2022/01/15 10:11:11;;;;;;;11.60;3.58;;;;;;;3.04;52.55;101452.66;1718503;82;25748;-62
2022/01/15 10:13:35;;;;;;;11.20;4.10;;;;;;;3.10;52.63;101454.55;1713426;82;26222;-62
2022/01/15 10:16:06;;;;;;;12.98;3.52;;;;;;;3.12;52.40;101450.51;1715286;83;25785;-62
2022/01/15 10:18:36;;;;;;;15.80;3.77;;;;;;;3.16;52.54;101457.39;1718560;82;27689;-62
2022/01/15 10:21:17;;;;;;;14.80;4.87;;;;;;;3.17;51.95;101452.95;1722205;82;25801;-62
2022/01/15 10:24:00;;;;;;;18.55;3.45;;;;;;;3.18;52.12;101458.67;1755657;80;25884;-63
2022/01/15 10:26:35;;;;;;;16.00;2.77;;;;;;;3.16;51.73;101453.41;1763585;80;25727;-62
2022/01/15 10:29:11;;;;;;;15.32;3.90;;;;;;;3.18;51.75;101460.00;1749112;81;26124;-61
2022/01/15 10:31:44;;;;;;;12.95;3.00;;;;;;;3.19;51.53;101459.92;1726639;81;27501;-61
2022/01/15 10:34:28;;;;;;;9.40;3.12;;;;;;;3.19;51.19;101457.26;1756795;81;25484;-61
2022/01/15 10:37:15;;;;;;;12.70;3.10;;;;;;;3.22;51.45;101485.05;1784007;80;26523;-61
2022/01/15 10:39:59;;;;;;;12.85;3.95;;;;;;;3.21;51.29;101475.79;1774130;80;25774;-62
2022/01/15 10:42:27;;;;;;;12.13;2.47;;;;;;;3.22;51.22;101465.55;1814580;77;25964;-61
2022/01/15 10:44:57;;;;;;;12.53;2.90;;;;;;;3.26;51.22;101471.14;1825642;78;27446;-61
2022/01/15 10:47:28;;;;;;;15.13;3.30;;;;;;;3.26;51.25;101468.00;1821601;78;43871;-61
2022/01/15 10:50:03;;;;;;;15.75;3.27;;;;;;;3.30;51.09;101464.72;1786381;78;25748;-61
2022/01/15 10:52:31;;;;;;;12.05;3.20;;;;;;;3.28;50.89;101466.13;1781621;80;26508;-61
2022/01/15 10:55:15;;;;;;;11.80;2.22;;;;;;;3.29;51.06;101468.31;1775887;80;25954;-61
2022/01/15 10:57:59;;;;;;;9.15;3.33;;;;;;;3.35;50.60;101458.73;1756562;80;28395;-61
2022/01/15 11:00:46;;;;;;;11.10;3.35;;;;;;;3.32;50.58;101463.34;1824547;78;25454;-61
2022/01/15 11:03:18;;;;;;;12.78;3.22;;;;;;;3.27;50.45;101465.73;1781636;80;25762;-61
2022/01/15 11:05:50;;;;;;;15.13;3.08;;;;;;;3.23;50.69;101458.82;1804760;77;25774;-61
2022/01/15 11:08:26;;;;;;;16.87;3.52;;;;;;;3.24;50.71;101471.19;1844671;77;25712;-61
2022/01/15 11:11:06;;;;;;;12.45;3.47;;;;;;;3.25;50.82;101462.76;1822132;77;27488;-61
2022/01/15 11:13:36;;;;;;;10.28;3.70;;;;;;;3.20;50.88;101454.12;1792775;78;25670;-61
2022/01/15 11:16:08;;;;;;;14.47;4.20;;;;;;;3.18;50.95;101456.02;1785514;80;25756;-61
2022/01/15 11:18:43;;;;;;;12.70;4.20;;;;;;;3.20;51.07;101464.30;1785179;80;26140;-61
2022/01/15 11:21:15;;;;;;;14.23;3.30;;;;;;;3.18;50.72;101469.30;1775976;78;25731;-60
2022/01/15 11:23:45;;;;;;;13.30;3.27;;;;;;;3.21;51.02;101482.44;1797730;77;27459;-61
2022/01/15 11:26:16;;;;;;;11.38;3.50;;;;;;;3.21;50.76;101471.80;1803302;79;25721;-62
2022/01/15 11:28:44;;;;;;;12.03;2.90;;;;;;;3.22;50.68;101470.87;1769980;80;25771;-61
2022/01/15 11:31:20;;;;;;;12.50;3.60;;;;;;;3.26;50.63;101461.83;1766019;81;25786;-62
2022/01/15 11:33:52;;;;;;;14.47;3.37;;;;;;;3.22;50.41;101462.45;1776938;79;25747;-62
2022/01/15 11:36:43;;;;;;;11.93;2.90;;;;;;;3.22;50.74;101465.55;1805014;79;27485;-61
2022/01/15 11:39:14;;;;;;;14.07;3.80;;;;;;;3.24;50.68;101462.36;1800940;78;25759;-61
2022/01/15 11:41:55;;;;;;;12.53;3.27;;;;;;;3.21;50.68;101465.16;1798130;78;25595;-61
2022/01/15 11:44:39;;;;;;;11.60;2.87;;;;;;;3.21;50.76;101468.70;1788278;79;26601;-62
2022/01/15 11:47:15;;;;;;;8.75;2.92;;;;;;;3.19;50.70;101472.33;1774671;80;26417;-61
2022/01/15 11:49:46;;;;;;;14.00;3.58;;;;;;;3.23;50.77;101469.94;1772155;80;27427;-62
2022/01/15 11:52:19;;;;;;;11.78;3.35;;;;;;;3.26;50.42;101475.13;1764146;80;25731;-61
2022/01/15 11:55:02;;;;;;;11.53;2.92;;;;;;;3.21;50.46;101475.79;1770206;80;25768;-61
2022/01/15 11:57:36;;;;;;;10.28;2.42;;;;;;;3.18;50.44;101483.45;1771846;79;26012;-62
2022/01/15 12:00:08;;;;;;;16.50;2.85;;;;;;;3.22;50.66;101480.17;1788469;78;25845;-61
2022/01/15 12:02:41;;;;;;;10.72;2.62;;;;;;;3.21;50.57;101478.45;1784806;79;28236;-62
2022/01/15 12:05:27;;;;;;;11.60;2.90;;;;;;;3.24;50.67;101460.55;1787735;79;25726;-62
2022/01/15 12:08:04;;;;;;;12.65;2.90;;;;;;;3.23;50.76;101468.61;1774821;79;25792;-62
2022/01/15 12:10:49;;;;;;;9.48;3.10;;;;;;;3.28;50.60;101487.41;1787547;79;25810;-61
2022/01/15 12:13:22;;;;;;;8.08;2.72;;;;;;;3.29;50.05;101462.55;1780611;79;25857;-61